createdAt,value
2018-10-05T00:02:07.109Z,91.18
2018-10-05T00:04:35.653Z,91.20
2018-10-05T00:07:04.428Z,91.03
2018-10-05T00:09:32.977Z,90.95
2018-10-05T00:12:01.504Z,91.09
2018-10-05T00:14:30.205Z,90.28
2018-10-05T00:16:58.849Z,90.63
2018-10-05T00:19:27.424Z,91.47
2018-10-05T00:21:56.076Z,90.58
2018-10-05T00:24:24.628Z,90.43
2018-10-05T00:26:53.220Z,90.88
2018-10-05T00:29:21.980Z,90.96
2018-10-05T00:31:50.486Z,92.10
2018-10-05T00:34:19.052Z,92.12
2018-10-05T00:36:47.713Z,91.80
2018-10-05T00:39:16.316Z,91.29
2018-10-05T00:41:44.913Z,91.06
2018-10-05T00:44:13.556Z,91.71
2018-10-05T00:46:42.141Z,91.55
2018-10-05T00:49:10.813Z,90.55
2018-10-05T00:51:39.640Z,90.07
2018-10-05T00:54:08.201Z,89.53
2018-10-05T00:56:36.711Z,91.06
2018-10-05T00:59:05.553Z,91.11
2018-10-05T01:01:34.088Z,90.33
2018-10-05T01:04:02.696Z,91.99
2018-10-05T01:06:31.758Z,91.36
2018-10-05T01:09:00.285Z,92.13
2018-10-05T01:11:28.929Z,91.99
2018-10-05T01:13:57.628Z,93.02
2018-10-05T01:16:26.393Z,93.34
2018-10-05T01:18:55.073Z,92.47
2018-10-05T01:21:23.833Z,91.57
2018-10-05T01:23:52.464Z,91.53
2018-10-05T01:26:21.112Z,91.10
2018-10-05T01:28:49.828Z,90.71
2018-10-05T01:31:18.394Z,90.71
2018-10-05T01:33:46.973Z,91.47
2018-10-05T01:36:15.569Z,91.58
2018-10-05T01:38:44.182Z,91.25
2018-10-05T01:41:12.704Z,91.97
2018-10-05T01:43:41.392Z,92.32
2018-10-05T01:46:09.993Z,92.35
2018-10-05T01:48:38.553Z,91.89
2018-10-05T01:51:07.168Z,91.72
2018-10-05T01:53:35.721Z,91.53
2018-10-05T01:56:04.325Z,91.74
2018-10-05T01:58:35.024Z,91.12
2018-10-05T02:01:04.299Z,90.97
2018-10-05T02:03:32.874Z,90.50
2018-10-05T02:06:01.524Z,90.93
2018-10-05T02:08:30.073Z,90.26
2018-10-05T02:10:58.682Z,90.33
2018-10-05T02:13:27.512Z,90.17
2018-10-05T02:15:56.037Z,89.51
2018-10-05T02:18:24.788Z,89.91
2018-10-05T02:20:53.513Z,90.82
2018-10-05T02:23:22.097Z,90.06
2018-10-05T02:25:50.696Z,89.83
2018-10-05T02:28:19.273Z,89.60
2018-10-05T02:30:47.813Z,90.93
2018-10-05T02:33:16.349Z,90.73
2018-10-05T02:35:44.964Z,91.29
2018-10-05T02:38:13.505Z,91.84
2018-10-05T02:40:42.021Z,90.75
2018-10-05T02:43:10.781Z,90.83
2018-10-05T02:45:39.337Z,90.05
2018-10-05T02:48:07.940Z,92.13
2018-10-05T02:50:36.892Z,91.89
2018-10-05T02:53:05.637Z,91.17
2018-10-05T02:55:34.195Z,90.96
2018-10-05T02:58:02.833Z,92.03
2018-10-05T03:00:42.709Z,93.03
2018-10-05T03:03:11.288Z,92.42
2018-10-05T03:05:39.881Z,92.37
2018-10-05T03:08:08.477Z,92.45
2018-10-05T03:10:37.096Z,91.56
2018-10-05T03:13:05.648Z,91.83
2018-10-05T03:15:34.238Z,91.41
2018-10-05T03:18:03.033Z,91.31
2018-10-05T03:20:31.656Z,91.40
2018-10-05T03:23:00.243Z,90.98
2018-10-05T03:25:28.875Z,91.09
2018-10-05T03:27:57.428Z,90.71
2018-10-05T03:30:25.945Z,91.45
2018-10-05T03:32:54.568Z,91.96
2018-10-05T03:35:23.122Z,92.03
2018-10-05T03:37:51.642Z,92.14
2018-10-05T03:40:20.669Z,91.54
2018-10-05T03:42:49.239Z,91.37
2018-10-05T03:45:17.809Z,91.57
2018-10-05T03:47:46.655Z,91.20
2018-10-05T03:50:15.353Z,91.14
2018-10-05T03:52:43.968Z,90.73
2018-10-05T03:55:12.761Z,91.76
2018-10-05T03:57:41.320Z,91.68
2018-10-05T04:00:09.938Z,91.12
2018-10-05T04:02:38.964Z,91.76
2018-10-05T04:05:07.721Z,91.72
2018-10-05T04:07:36.396Z,92.97
2018-10-05T04:10:05.227Z,92.52
2018-10-05T04:12:33.832Z,91.37
2018-10-05T04:15:02.357Z,92.46
2018-10-05T04:17:30.938Z,92.05
2018-10-05T04:19:59.601Z,92.31
2018-10-05T04:22:30.949Z,92.28
2018-10-05T04:24:59.596Z,92.31
2018-10-05T04:27:28.345Z,92.35
2018-10-05T04:29:57.580Z,92.30
2018-10-05T04:32:26.719Z,92.13
2018-10-05T04:34:55.301Z,91.91
2018-10-05T04:37:24.025Z,92.19
2018-10-05T04:39:52.557Z,92.22
2018-10-05T04:42:21.292Z,92.71
2018-10-05T04:44:50.324Z,93.68
2018-10-05T04:47:18.853Z,92.19
2018-10-05T04:49:47.527Z,91.93
2018-10-05T04:52:16.516Z,91.88
2018-10-05T04:54:45.130Z,91.24
2018-10-05T04:57:13.774Z,91.42
2018-10-05T04:59:42.493Z,91.23
2018-10-05T05:02:11.080Z,91.39
2018-10-05T05:04:39.641Z,91.92
2018-10-05T05:07:08.780Z,91.61
2018-10-05T05:09:37.292Z,92.70
2018-10-05T05:12:05.921Z,92.38
2018-10-05T05:14:34.576Z,92.59
2018-10-05T05:17:03.129Z,93.14
2018-10-05T05:19:31.779Z,91.48
2018-10-05T05:22:00.573Z,92.52
2018-10-05T05:24:29.264Z,92.77
2018-10-05T05:26:57.805Z,92.30
2018-10-05T05:29:26.489Z,91.81
2018-10-05T05:31:55.054Z,92.26
2018-10-05T05:34:23.605Z,91.53
2018-10-05T05:36:52.484Z,91.86
2018-10-05T05:39:21.171Z,91.28
2018-10-05T05:41:49.961Z,92.00
2018-10-05T05:44:18.905Z,92.41
2018-10-05T05:46:47.534Z,92.90
2018-10-05T05:49:16.245Z,93.03
2018-10-05T05:51:45.063Z,93.36
2018-10-05T05:54:13.810Z,93.13
2018-10-05T05:56:42.433Z,93.49
2018-10-05T05:59:11.465Z,93.38
2018-10-05T06:01:40.033Z,92.88
2018-10-05T06:04:08.600Z,92.10
2018-10-05T06:06:37.296Z,91.82
2018-10-05T06:09:08.522Z,92.12
2018-10-05T06:11:37.243Z,92.37
2018-10-05T06:14:06.140Z,91.98
2018-10-05T06:16:34.798Z,91.96
2018-10-05T06:19:03.616Z,92.47
2018-10-05T06:21:32.404Z,94.00
2018-10-05T06:24:01.089Z,93.50
2018-10-05T06:26:29.810Z,92.79
2018-10-05T06:28:58.505Z,92.91
2018-10-05T06:31:27.025Z,92.92
2018-10-05T06:33:55.809Z,93.31
2018-10-05T06:36:24.444Z,92.96
2018-10-05T06:38:53.028Z,93.32
2018-10-05T06:41:21.887Z,93.89
2018-10-05T06:43:50.603Z,93.25
2018-10-05T06:46:19.444Z,92.58
2018-10-05T06:48:48.312Z,91.57
2018-10-05T06:51:16.993Z,90.32
2018-10-05T06:53:45.658Z,89.91
2018-10-05T06:56:14.404Z,90.60
2018-10-05T06:58:42.944Z,91.43
2018-10-05T07:01:11.780Z,91.38
2018-10-05T07:03:40.494Z,92.21
2018-10-05T07:06:09.292Z,92.56
2018-10-05T07:08:37.856Z,91.65
2018-10-05T07:11:06.758Z,92.66
2018-10-05T07:13:35.344Z,91.62
2018-10-05T07:16:03.889Z,91.46
2018-10-05T07:18:32.570Z,90.40
2018-10-05T07:21:01.153Z,90.96
2018-10-05T07:23:29.713Z,90.00
2018-10-05T07:25:58.832Z,89.97
2018-10-05T07:28:27.599Z,89.21
2018-10-05T07:30:56.038Z,90.02
2018-10-05T07:33:24.649Z,89.81
2018-10-05T07:35:53.284Z,90.39
2018-10-05T07:38:21.840Z,89.82
2018-10-05T07:40:50.428Z,89.32
2018-10-05T07:43:19.013Z,88.40
2018-10-05T07:45:47.648Z,89.00
2018-10-05T07:48:16.353Z,89.55
2018-10-05T07:50:44.953Z,89.19
2018-10-05T07:53:13.501Z,89.20
2018-10-05T07:55:42.244Z,90.99
2018-10-05T07:58:11.040Z,90.92
2018-10-05T08:00:39.638Z,88.50
2018-10-05T08:03:08.340Z,88.25
2018-10-05T08:05:36.957Z,89.90
2018-10-05T08:08:05.512Z,91.31
2018-10-05T08:10:34.275Z,90.56
2018-10-05T08:13:02.852Z,90.77
2018-10-05T08:15:31.508Z,90.08
2018-10-05T08:18:00.225Z,89.36
2018-10-05T08:20:29.197Z,88.30
2018-10-05T08:22:57.765Z,87.60
2018-10-05T08:25:26.621Z,87.55
2018-10-05T08:27:55.206Z,86.80
2018-10-05T08:30:23.870Z,86.85
2018-10-05T08:32:52.497Z,87.37
2018-10-05T08:35:21.089Z,86.03
2018-10-05T08:37:49.726Z,85.29
2018-10-05T08:40:18.492Z,84.78
2018-10-05T08:42:47.480Z,84.90
2018-10-05T08:45:16.129Z,84.43
2018-10-05T08:47:44.905Z,82.90
2018-10-05T08:50:13.489Z,83.38
2018-10-05T08:52:42.038Z,81.69
2018-10-05T08:55:10.817Z,81.12
2018-10-05T08:57:39.354Z,80.93
2018-10-05T09:00:09.345Z,81.53
2018-10-05T09:02:38.130Z,80.97
2018-10-05T09:05:06.720Z,80.45
2018-10-05T09:07:35.252Z,80.01
2018-10-05T09:10:04.128Z,81.23
2018-10-05T09:12:32.844Z,81.37
2018-10-05T09:15:01.484Z,80.57
2018-10-05T09:17:30.071Z,80.09
2018-10-05T09:19:59.113Z,79.05
2018-10-05T09:22:27.719Z,78.80
2018-10-05T09:24:56.638Z,78.20
2018-10-05T09:27:25.241Z,76.95
2018-10-05T09:29:53.768Z,76.61
2018-10-05T09:32:22.447Z,75.93
2018-10-05T09:34:51.076Z,74.61
2018-10-05T09:37:19.768Z,75.46
2018-10-05T09:39:48.752Z,74.47
2018-10-05T09:42:17.300Z,74.43
2018-10-05T09:44:45.923Z,75.34
2018-10-05T09:47:14.592Z,74.35
2018-10-05T09:49:43.125Z,73.59
2018-10-05T09:52:11.759Z,72.33
2018-10-05T09:54:40.716Z,71.40
2018-10-05T09:57:09.289Z,71.79
2018-10-05T09:59:37.959Z,70.90
2018-10-05T10:02:11.964Z,71.82
2018-10-05T10:04:40.489Z,70.16
2018-10-05T10:07:09.086Z,69.40
2018-10-05T10:09:37.657Z,69.73
2018-10-05T10:12:06.249Z,69.14
2018-10-05T10:14:34.844Z,67.93
2018-10-05T10:17:03.581Z,68.46
2018-10-05T10:19:32.190Z,67.56
2018-10-05T10:22:00.736Z,67.79
2018-10-05T10:24:29.633Z,66.64
2018-10-05T10:26:58.192Z,65.87
2018-10-05T10:29:26.782Z,66.00
2018-10-05T10:31:55.498Z,65.77
2018-10-05T10:34:24.114Z,65.99
2018-10-05T10:36:52.889Z,64.43
2018-10-05T10:39:21.668Z,64.09
2018-10-05T10:41:50.341Z,65.09
2018-10-05T10:44:19.045Z,65.16
2018-10-05T10:46:47.868Z,64.79
2018-10-05T10:49:16.440Z,62.97
2018-10-05T10:51:45.040Z,64.46
2018-10-05T10:54:13.906Z,63.91
2018-10-05T10:56:42.541Z,62.85
2018-10-05T10:59:11.112Z,63.57
2018-10-05T11:01:39.785Z,62.81
2018-10-05T11:04:08.477Z,62.78
2018-10-05T11:06:37.138Z,62.55
2018-10-05T11:09:07.646Z,62.73
2018-10-05T11:11:36.609Z,61.70
2018-10-05T11:14:05.376Z,62.53
2018-10-05T11:16:34.333Z,61.60
2018-10-05T11:19:02.951Z,61.13
2018-10-05T11:21:31.561Z,61.23
2018-10-05T11:24:00.296Z,61.06
2018-10-05T11:26:47.241Z,60.67
2018-10-05T11:29:16.125Z,60.24
2018-10-05T11:31:44.973Z,59.63
2018-10-05T11:34:13.599Z,59.68
2018-10-05T11:36:42.684Z,59.33
2018-10-05T11:39:11.285Z,58.82
2018-10-05T11:41:39.933Z,58.72
2018-10-05T11:44:08.657Z,58.46
2018-10-05T11:46:37.300Z,58.49
2018-10-05T11:49:06.357Z,58.27
2018-10-05T11:51:35.260Z,58.13
2018-10-05T11:54:03.920Z,58.43
2018-10-05T11:56:32.441Z,58.01
2018-10-05T11:59:01.456Z,58.48
2018-10-05T12:01:30.124Z,58.85
2018-10-05T12:03:58.742Z,58.20
2018-10-05T12:06:27.316Z,57.94
2018-10-05T12:08:55.997Z,57.59
2018-10-05T12:11:24.613Z,57.97
2018-10-05T12:13:53.234Z,58.78
2018-10-05T12:16:21.845Z,57.86
2018-10-05T12:18:50.590Z,57.81
2018-10-05T12:21:19.304Z,57.41
2018-10-05T12:23:47.844Z,57.74
2018-10-05T12:26:16.481Z,57.95
2018-10-05T12:28:45.305Z,57.98
2018-10-05T12:31:13.984Z,57.76
2018-10-05T12:33:42.669Z,56.83
2018-10-05T12:36:11.204Z,57.61
2018-10-05T12:38:39.751Z,57.17
2018-10-05T12:41:08.356Z,56.95
2018-10-05T12:43:37.104Z,57.29
2018-10-05T12:46:05.757Z,56.89
2018-10-05T12:48:34.276Z,57.12
2018-10-05T12:51:03.088Z,57.16
2018-10-05T12:53:31.960Z,56.21
2018-10-05T12:56:01.057Z,56.91
2018-10-05T12:58:29.796Z,56.66
2018-10-05T13:00:58.352Z,56.63
2018-10-05T13:03:26.946Z,56.60
2018-10-05T13:05:55.714Z,56.18
2018-10-05T13:08:24.340Z,56.34
2018-10-05T13:10:52.880Z,56.31
2018-10-05T13:13:21.502Z,56.27
2018-10-05T13:15:50.117Z,56.93
2018-10-05T13:18:18.776Z,55.38
2018-10-05T13:20:47.796Z,55.23
2018-10-05T13:23:16.450Z,55.47
2018-10-05T13:25:45.128Z,56.15
2018-10-05T13:28:13.865Z,55.17
2018-10-05T13:30:42.380Z,54.99
2018-10-05T13:33:11.069Z,54.80
2018-10-05T13:35:39.857Z,54.95
2018-10-05T13:38:08.401Z,54.64
2018-10-05T13:40:37.057Z,54.69
2018-10-05T13:43:06.072Z,54.22
2018-10-05T13:45:34.632Z,53.57
2018-10-05T13:48:03.229Z,53.22
2018-10-05T13:50:32.061Z,54.11
2018-10-05T13:53:00.604Z,53.31
2018-10-05T13:55:29.416Z,53.54
2018-10-05T13:57:58.146Z,53.45
2018-10-05T14:00:26.726Z,54.23
2018-10-05T14:02:55.301Z,53.73
2018-10-05T14:05:24.149Z,53.69
2018-10-05T14:07:53.166Z,52.92
2018-10-05T14:10:21.787Z,53.51
2018-10-05T14:12:50.544Z,53.15
2018-10-05T14:15:19.432Z,52.34
2018-10-05T14:17:48.001Z,53.16
2018-10-05T14:20:16.758Z,52.52
2018-10-05T14:22:45.392Z,52.72
2018-10-05T14:25:13.956Z,52.65
2018-10-05T14:27:42.889Z,52.83
2018-10-05T14:30:11.603Z,52.50
2018-10-05T14:32:40.204Z,53.33
2018-10-05T14:35:08.880Z,52.60
2018-10-05T14:37:37.456Z,52.88
2018-10-05T14:40:06.115Z,53.04
2018-10-05T14:42:34.860Z,52.76
2018-10-05T14:45:03.400Z,52.46
2018-10-05T14:47:31.988Z,52.33
2018-10-05T14:50:00.565Z,52.92
2018-10-05T14:52:29.160Z,52.75
2018-10-05T14:54:57.873Z,53.31
2018-10-05T14:57:26.519Z,53.15
2018-10-05T14:59:55.053Z,52.41
2018-10-05T15:02:23.654Z,52.60
2018-10-05T15:04:52.388Z,52.73
2018-10-05T15:07:20.956Z,52.22
2018-10-05T15:09:49.549Z,52.38
2018-10-05T15:12:18.602Z,52.91
2018-10-05T15:14:47.238Z,52.91
2018-10-05T15:17:16.011Z,53.12
2018-10-05T15:19:44.869Z,52.93
2018-10-05T15:22:13.424Z,52.93
2018-10-05T15:24:41.964Z,52.68
2018-10-05T15:27:11.199Z,52.98
2018-10-05T15:29:39.893Z,53.00
2018-10-05T15:32:08.554Z,53.02
2018-10-05T15:34:37.294Z,53.31
2018-10-05T15:37:06.085Z,52.79
2018-10-05T15:39:34.757Z,53.31
2018-10-05T15:42:03.396Z,53.43
2018-10-05T15:44:32.068Z,54.20
2018-10-05T15:47:08.508Z,53.46
2018-10-05T15:49:37.845Z,54.05
2018-10-05T15:52:06.664Z,54.13
2018-10-05T15:54:35.356Z,54.46
2018-10-05T15:57:04.488Z,53.64
2018-10-05T15:59:34.073Z,54.94
2018-10-05T16:02:02.905Z,54.80
2018-10-05T16:04:31.997Z,55.33
2018-10-05T16:07:00.585Z,55.24
2018-10-05T16:09:29.420Z,54.34
2018-10-05T16:11:58.188Z,56.03
2018-10-05T16:14:27.611Z,56.04
2018-10-05T16:16:56.345Z,55.71
2018-10-05T16:19:24.996Z,55.80
2018-10-05T16:21:53.605Z,56.23
2018-10-05T16:24:41.367Z,56.81
2018-10-05T16:27:10.860Z,56.70
2018-10-05T16:29:39.610Z,57.78
2018-10-05T16:32:09.421Z,57.99
2018-10-05T16:34:38.222Z,58.22
2018-10-05T16:37:06.992Z,59.48
2018-10-05T16:39:36.125Z,59.33
2018-10-05T16:42:04.952Z,60.08
2018-10-05T16:44:33.602Z,61.31
2018-10-05T16:47:02.744Z,61.19
2018-10-05T16:49:31.385Z,62.35
2018-10-05T16:52:00.014Z,62.92
2018-10-05T16:54:28.749Z,63.86
2018-10-05T16:56:57.368Z,64.78
2018-10-05T16:59:25.991Z,64.79
2018-10-05T17:01:54.644Z,66.16
2018-10-05T17:04:23.286Z,67.09
2018-10-05T17:06:51.836Z,67.61
2018-10-05T17:09:20.405Z,66.90
2018-10-05T17:11:48.916Z,67.80
2018-10-05T17:14:17.500Z,66.87
2018-10-05T17:16:46.217Z,67.96
2018-10-05T17:19:14.846Z,67.82
2018-10-05T17:21:43.441Z,68.60
2018-10-05T17:24:12.045Z,67.95
2018-10-05T17:26:40.656Z,68.33
2018-10-05T17:29:09.289Z,68.35
2018-10-05T17:31:37.984Z,68.90
2018-10-05T17:34:06.674Z,68.46
2018-10-05T17:36:35.345Z,69.05
2018-10-05T17:39:06.048Z,69.06
2018-10-05T17:41:34.696Z,69.84
2018-10-05T17:44:03.268Z,70.09
2018-10-05T17:46:32.057Z,69.42
2018-10-05T17:49:00.749Z,69.35
2018-10-05T17:51:29.369Z,70.41
2018-10-05T17:53:58.048Z,70.56
2018-10-05T17:56:26.648Z,69.55
2018-10-05T17:58:55.169Z,70.76
2018-10-05T18:01:23.988Z,71.53
2018-10-05T18:03:52.540Z,71.79
2018-10-05T18:06:21.148Z,71.43
2018-10-05T18:08:49.818Z,73.00
2018-10-05T18:11:18.445Z,73.46
2018-10-05T18:13:47.057Z,74.68
2018-10-05T18:16:15.885Z,74.98
2018-10-05T18:18:44.548Z,74.47
2018-10-05T18:21:13.161Z,75.13
2018-10-05T18:23:41.783Z,75.07
2018-10-05T18:26:10.407Z,76.55
2018-10-05T18:28:39.030Z,76.08
2018-10-05T18:31:07.624Z,76.09
2018-10-05T18:33:36.292Z,77.77
2018-10-05T18:36:04.930Z,78.71
2018-10-05T18:38:33.644Z,78.48
2018-10-05T18:41:02.177Z,78.42
2018-10-05T18:43:30.861Z,79.21
2018-10-05T18:45:59.549Z,79.33
2018-10-05T18:48:28.180Z,79.66
2018-10-05T18:50:56.735Z,79.74
2018-10-05T18:53:25.892Z,79.76
2018-10-05T18:55:54.492Z,80.53
2018-10-05T18:58:23.088Z,80.50
2018-10-05T19:00:51.740Z,81.06
2018-10-05T19:03:20.420Z,81.55
2018-10-05T19:05:48.993Z,82.06
2018-10-05T19:08:17.545Z,82.97
2018-10-05T19:10:46.192Z,83.50
2018-10-05T19:13:14.786Z,82.88
2018-10-05T19:15:43.517Z,82.82
2018-10-05T19:18:12.062Z,83.87
2018-10-05T19:20:40.737Z,83.27
2018-10-05T19:23:09.412Z,83.02
2018-10-05T19:25:37.964Z,83.57
2018-10-05T19:28:06.580Z,84.43
2018-10-05T19:30:35.306Z,84.65
2018-10-05T19:33:03.925Z,84.48
2018-10-05T19:35:32.574Z,84.30
2018-10-05T19:38:01.173Z,84.74
2018-10-05T19:40:29.776Z,85.13
2018-10-05T19:42:58.356Z,85.09
2018-10-05T19:45:27.253Z,84.73
2018-10-05T19:47:55.882Z,85.56
2018-10-05T19:50:24.457Z,86.38
2018-10-05T19:52:53.211Z,86.03
2018-10-05T19:55:21.779Z,86.27
2018-10-05T19:57:50.288Z,86.62
2018-10-05T20:00:18.953Z,86.49
2018-10-05T20:02:47.537Z,86.75
2018-10-05T20:05:16.068Z,86.56
2018-10-05T20:07:44.680Z,87.25
2018-10-05T20:10:13.309Z,87.05
2018-10-05T20:12:41.901Z,86.73
2018-10-05T20:15:10.559Z,88.40
2018-10-05T20:17:39.169Z,88.07
2018-10-05T20:20:07.828Z,87.88
2018-10-05T20:22:36.436Z,87.31
2018-10-05T20:25:05.058Z,87.35
2018-10-05T20:27:33.698Z,87.78
2018-10-05T20:30:02.429Z,87.71
2018-10-05T20:32:31.022Z,87.71
2018-10-05T20:34:59.550Z,88.17
2018-10-05T20:37:28.433Z,87.88
2018-10-05T20:39:56.820Z,87.36
2018-10-05T20:42:25.380Z,88.30
2018-10-05T20:44:54.320Z,88.62
2018-10-05T20:47:22.888Z,88.81
2018-10-05T20:49:51.398Z,88.37
2018-10-05T20:52:19.980Z,88.56
2018-10-05T20:54:48.616Z,88.80
2018-10-05T20:57:17.180Z,88.95
2018-10-05T20:59:45.860Z,88.48
2018-10-05T21:02:14.356Z,89.67
2018-10-05T21:04:43.001Z,88.49
2018-10-05T21:07:11.563Z,88.44
2018-10-05T21:09:40.152Z,90.18
2018-10-05T21:12:08.716Z,91.22
2018-10-05T21:14:37.533Z,90.88
2018-10-05T21:17:06.441Z,90.75
2018-10-05T21:19:35.056Z,89.70
2018-10-05T21:22:03.899Z,89.45
2018-10-05T21:24:33.007Z,90.12
2018-10-05T21:27:01.521Z,89.88
2018-10-05T21:29:30.045Z,89.65
2018-10-05T21:31:58.740Z,89.29
2018-10-05T21:34:27.248Z,90.87
2018-10-05T21:36:55.857Z,90.87
2018-10-05T21:39:24.362Z,90.89
2018-10-05T21:41:52.888Z,88.78
2018-10-05T21:44:21.523Z,90.57
2018-10-05T21:46:50.075Z,90.13
2018-10-05T21:49:18.680Z,90.04
2018-10-05T21:51:47.456Z,89.57
2018-10-05T21:54:16.077Z,89.60
2018-10-05T21:56:44.572Z,90.49
2018-10-05T21:59:13.200Z,90.10
2018-10-05T22:01:41.776Z,90.29
2018-10-05T22:04:10.332Z,89.22
2018-10-05T22:06:38.876Z,89.80
2018-10-05T22:09:10.153Z,90.21
2018-10-05T22:11:38.677Z,91.43
2018-10-05T22:14:07.665Z,90.03
2018-10-05T22:16:36.155Z,90.54
2018-10-05T22:19:04.976Z,90.52
2018-10-05T22:21:33.460Z,90.11
2018-10-05T22:24:02.114Z,89.95
2018-10-05T22:26:30.704Z,89.59
2018-10-05T22:28:59.192Z,90.16
2018-10-05T22:31:28.133Z,90.80
2018-10-05T22:33:56.972Z,91.10
2018-10-05T22:36:25.489Z,91.35
2018-10-05T22:38:53.992Z,91.08
2018-10-05T22:41:22.728Z,91.45
2018-10-05T22:43:51.248Z,90.94
2018-10-05T22:46:20.232Z,91.69
2018-10-05T22:48:49.128Z,92.05
2018-10-05T22:51:17.664Z,91.71
2018-10-05T22:53:46.248Z,91.73
2018-10-05T22:56:15.024Z,91.04
2018-10-05T22:58:43.546Z,91.47
2018-10-05T23:01:12.064Z,91.41
2018-10-05T23:03:40.756Z,92.10
2018-10-05T23:06:09.304Z,91.11
2018-10-05T23:08:37.844Z,92.90
2018-10-05T23:11:06.580Z,91.79
2018-10-05T23:13:35.384Z,91.91
2018-10-05T23:16:03.969Z,92.62
2018-10-05T23:18:32.691Z,91.58
2018-10-05T23:21:01.185Z,90.95
2018-10-05T23:23:29.684Z,90.74
2018-10-05T23:25:58.303Z,91.95
2018-10-05T23:28:26.924Z,93.65
2018-10-05T23:30:55.430Z,93.04
2018-10-05T23:33:24.185Z,92.15
2018-10-05T23:35:52.685Z,92.25
2018-10-05T23:38:21.208Z,92.07
2018-10-05T23:40:49.731Z,92.26
2018-10-05T23:43:18.288Z,91.71
2018-10-05T23:45:46.828Z,91.20
2018-10-05T23:48:15.465Z,91.68
2018-10-05T23:50:44.016Z,91.33
2018-10-05T23:53:12.584Z,91.09
2018-10-05T23:55:41.248Z,91.15
2018-10-05T23:58:09.864Z,92.81
